sensor_id;sensor_type;location;lat;lon;timestamp;pressure;altitude;pressure_sealevel;temperature;humidity
28911;BME280;16028;42.642;23.310;2023-05-22T00:01:27;93784.78;;;13.61;95.33
28911;BME280;16028;42.642;23.310;2023-05-22T00:03:54;93787.19;;;13.71;95.66
28911;BME280;16028;42.642;23.310;2023-05-22T00:06:22;93789.63;;;13.72;95.83
28911;BME280;16028;42.642;23.310;2023-05-22T00:08:49;93783.25;;;13.75;96.24
28911;BME280;16028;42.642;23.310;2023-05-22T00:11:16;93774.59;;;13.74;95.98
28911;BME280;16028;42.642;23.310;2023-05-22T00:13:43;93777.69;;;13.78;96.54
28911;BME280;16028;42.642;23.310;2023-05-22T00:16:09;93774.53;;;13.83;96.86
28911;BME280;16028;42.642;23.310;2023-05-22T00:18:36;93779.06;;;13.89;96.93
28911;BME280;16028;42.642;23.310;2023-05-22T00:21:06;93771.53;;;13.94;96.18
28911;BME280;16028;42.642;23.310;2023-05-22T00:23:34;93769.66;;;14.02;96.21
28911;BME280;16028;42.642;23.310;2023-05-22T00:26:01;93768.44;;;14.13;94.55
28911;BME280;16028;42.642;23.310;2023-05-22T00:28:28;93772.16;;;14.18;94.25
28911;BME280;16028;42.642;23.310;2023-05-22T00:30:55;93767.41;;;14.22;94.13
28911;BME280;16028;42.642;23.310;2023-05-22T00:33:23;93772.09;;;14.26;94.16
28911;BME280;16028;42.642;23.310;2023-05-22T00:35:50;93768.16;;;14.53;92.88
28911;BME280;16028;42.642;23.310;2023-05-22T00:38:27;93774.38;;;14.52;91.50
28911;BME280;16028;42.642;23.310;2023-05-22T00:40:57;93772.19;;;14.41;92.62
28911;BME280;16028;42.642;23.310;2023-05-22T00:43:23;93777.22;;;14.43;93.17
28911;BME280;16028;42.642;23.310;2023-05-22T00:45:50;93779.22;;;14.41;94.06
28911;BME280;16028;42.642;23.310;2023-05-22T00:48:18;93776.59;;;14.41;94.27
28911;BME280;16028;42.642;23.310;2023-05-22T00:50:45;93777.56;;;14.40;94.44
28911;BME280;16028;42.642;23.310;2023-05-22T00:53:12;93779.84;;;14.43;94.73
28911;BME280;16028;42.642;23.310;2023-05-22T00:55:39;93773.16;;;14.40;94.57
28911;BME280;16028;42.642;23.310;2023-05-22T00:58:09;93776.75;;;14.39;94.38
28911;BME280;16028;42.642;23.310;2023-05-22T01:00:39;93772.19;;;14.41;94.37
28911;BME280;16028;42.642;23.310;2023-05-22T01:03:07;93781.22;;;14.39;94.12
28911;BME280;16028;42.642;23.310;2023-05-22T01:05:34;93769.91;;;14.38;94.15
28911;BME280;16028;42.642;23.310;2023-05-22T01:08:00;93775.16;;;14.30;94.29
28911;BME280;16028;42.642;23.310;2023-05-22T01:10:27;93780.41;;;14.30;94.20
28911;BME280;16028;42.642;23.310;2023-05-22T01:13:00;93784.19;;;14.27;93.94
28911;BME280;16028;42.642;23.310;2023-05-22T01:15:36;93781.94;;;14.24;93.68
28911;BME280;16028;42.642;23.310;2023-05-22T01:18:10;93784.91;;;14.21;93.98
28911;BME280;16028;42.642;23.310;2023-05-22T01:20:49;93781.81;;;14.18;94.30
28911;BME280;16028;42.642;23.310;2023-05-22T01:23:41;93773.97;;;14.18;94.50
28911;BME280;16028;42.642;23.310;2023-05-22T01:26:38;93776.09;;;14.14;94.65
28911;BME280;16028;42.642;23.310;2023-05-22T01:29:25;93772.41;;;14.09;95.12
28911;BME280;16028;42.642;23.310;2023-05-22T01:31:56;93770.41;;;14.11;95.21
28911;BME280;16028;42.642;23.310;2023-05-22T01:34:25;93775.84;;;14.09;95.52
28911;BME280;16028;42.642;23.310;2023-05-22T01:36:53;93770.75;;;14.08;95.28
28911;BME280;16028;42.642;23.310;2023-05-22T01:39:23;93763.25;;;14.05;95.66
28911;BME280;16028;42.642;23.310;2023-05-22T01:41:51;93760.38;;;14.00;96.29
28911;BME280;16028;42.642;23.310;2023-05-22T01:44:17;93757.44;;;13.95;96.55
28911;BME280;16028;42.642;23.310;2023-05-22T01:46:44;93756.22;;;13.83;96.48
28911;BME280;16028;42.642;23.310;2023-05-22T01:49:12;93766.91;;;13.73;96.90
28911;BME280;16028;42.642;23.310;2023-05-22T01:51:46;93765.13;;;13.73;97.34
28911;BME280;16028;42.642;23.310;2023-05-22T01:54:18;93764.81;;;13.68;97.15
28911;BME280;16028;42.642;23.310;2023-05-22T01:56:52;93757.84;;;13.61;97.40
28911;BME280;16028;42.642;23.310;2023-05-22T01:59:24;93758.06;;;13.51;97.84
28911;BME280;16028;42.642;23.310;2023-05-22T02:01:58;93765.41;;;13.48;98.16
28911;BME280;16028;42.642;23.310;2023-05-22T02:04:28;93748.31;;;13.37;98.37
28911;BME280;16028;42.642;23.310;2023-05-22T02:06:57;93762.06;;;13.31;98.66
28911;BME280;16028;42.642;23.310;2023-05-22T02:09:27;93755.56;;;13.27;98.42
28911;BME280;16028;42.642;23.310;2023-05-22T02:11:54;93762.91;;;13.23;98.93
28911;BME280;16028;42.642;23.310;2023-05-22T02:14:21;93765.06;;;13.20;98.95
28911;BME280;16028;42.642;23.310;2023-05-22T02:16:48;93761.00;;;13.17;99.32
28911;BME280;16028;42.642;23.310;2023-05-22T02:19:15;93763.94;;;13.14;98.83
28911;BME280;16028;42.642;23.310;2023-05-22T02:21:43;93756.91;;;13.07;99.11
28911;BME280;16028;42.642;23.310;2023-05-22T02:24:10;93761.50;;;13.05;99.42
28911;BME280;16028;42.642;23.310;2023-05-22T02:26:37;93754.63;;;13.04;100.00
28911;BME280;16028;42.642;23.310;2023-05-22T02:29:04;93761.66;;;13.03;100.00
28911;BME280;16028;42.642;23.310;2023-05-22T02:31:31;93763.78;;;13.00;100.00
28911;BME280;16028;42.642;23.310;2023-05-22T02:33:58;93765.91;;;12.96;100.00
28911;BME280;16028;42.642;23.310;2023-05-22T02:36:25;93760.88;;;12.95;100.00
28911;BME280;16028;42.642;23.310;2023-05-22T02:38:53;93763.28;;;12.96;100.00
28911;BME280;16028;42.642;23.310;2023-05-22T02:41:20;93757.25;;;12.96;100.00
28911;BME280;16028;42.642;23.310;2023-05-22T02:43:49;93754.66;;;12.96;100.00
28911;BME280;16028;42.642;23.310;2023-05-22T02:46:15;93750.59;;;12.93;100.00
28911;BME280;16028;42.642;23.310;2023-05-22T02:48:42;93751.06;;;12.97;99.80
28911;BME280;16028;42.642;23.310;2023-05-22T02:51:10;93751.25;;;12.95;99.71
28911;BME280;16028;42.642;23.310;2023-05-22T02:53:36;93751.41;;;12.94;99.75
28911;BME280;16028;42.642;23.310;2023-05-22T02:56:06;93746.53;;;12.91;99.55
28911;BME280;16028;42.642;23.310;2023-05-22T02:58:35;93740.66;;;12.89;99.93
28911;BME280;16028;42.642;23.310;2023-05-22T03:01:02;93743.94;;;12.83;100.00
28911;BME280;16028;42.642;23.310;2023-05-22T03:03:30;93748.69;;;12.79;100.00
28911;BME280;16028;42.642;23.310;2023-05-22T03:05:58;93751.78;;;12.83;100.00
28911;BME280;16028;42.642;23.310;2023-05-22T03:08:26;93753.22;;;12.85;100.00
28911;BME280;16028;42.642;23.310;2023-05-22T03:10:54;93744.72;;;12.83;100.00
28911;BME280;16028;42.642;23.310;2023-05-22T03:13:22;93752.91;;;12.80;100.00
28911;BME280;16028;42.642;23.310;2023-05-22T03:15:49;93753.22;;;12.77;100.00
28911;BME280;16028;42.642;23.310;2023-05-22T03:18:16;93757.66;;;12.68;100.00
28911;BME280;16028;42.642;23.310;2023-05-22T03:20:42;93761.44;;;12.66;100.00
28911;BME280;16028;42.642;23.310;2023-05-22T03:23:10;93762.41;;;12.65;100.00
28911;BME280;16028;42.642;23.310;2023-05-22T03:25:37;93757.84;;;12.59;100.00
28911;BME280;16028;42.642;23.310;2023-05-22T03:28:04;93761.75;;;12.55;100.00
28911;BME280;16028;42.642;23.310;2023-05-22T03:30:32;93760.59;;;12.57;100.00
28911;BME280;16028;42.642;23.310;2023-05-22T03:32:59;93761.75;;;12.55;100.00
28911;BME280;16028;42.642;23.310;2023-05-22T03:35:28;93759.00;;;12.56;100.00
28911;BME280;16028;42.642;23.310;2023-05-22T03:37:55;93755.38;;;12.57;100.00
28911;BME280;16028;42.642;23.310;2023-05-22T03:40:22;93760.59;;;12.57;100.00
28911;BME280;16028;42.642;23.310;2023-05-22T03:42:49;93759.63;;;12.58;100.00
28911;BME280;16028;42.642;23.310;2023-05-22T03:45:16;93760.28;;;12.60;100.00
28911;BME280;16028;42.642;23.310;2023-05-22T03:47:44;93758.16;;;12.64;100.00
28911;BME280;16028;42.642;23.310;2023-05-22T03:50:11;93756.22;;;12.66;100.00
28911;BME280;16028;42.642;23.310;2023-05-22T03:52:38;93752.44;;;12.68;100.00
28911;BME280;16028;42.642;23.310;2023-05-22T03:55:06;93762.22;;;12.74;100.00
28911;BME280;16028;42.642;23.310;2023-05-22T03:57:33;93754.38;;;12.83;100.00
28911;BME280;16028;42.642;23.310;2023-05-22T03:59:59;93752.06;;;12.88;100.00
28911;BME280;16028;42.642;23.310;2023-05-22T04:02:34;93768.22;;;12.91;100.00
28911;BME280;16028;42.642;23.310;2023-05-22T04:05:07;93766.56;;;12.98;100.00
28911;BME280;16028;42.642;23.310;2023-05-22T04:07:34;93764.75;;;13.07;100.00
28911;BME280;16028;42.642;23.310;2023-05-22T04:10:02;93768.97;;;13.16;100.00
28911;BME280;16028;42.642;23.310;2023-05-22T04:12:29;93757.22;;;13.20;100.00
28911;BME280;16028;42.642;23.310;2023-05-22T04:14:55;93764.38;;;13.26;100.00
28911;BME280;16028;42.642;23.310;2023-05-22T04:17:22;93765.13;;;13.43;100.00
28911;BME280;16028;42.642;23.310;2023-05-22T04:19:49;93761.00;;;13.48;100.00
28911;BME280;16028;42.642;23.310;2023-05-22T04:22:17;93769.31;;;13.52;100.00
28911;BME280;16028;42.642;23.310;2023-05-22T04:24:43;93763.91;;;13.53;100.00
28911;BME280;16028;42.642;23.310;2023-05-22T04:27:13;93768.63;;;13.58;100.00
28911;BME280;16028;42.642;23.310;2023-05-22T04:29:40;93770.75;;;13.62;100.00
28911;BME280;16028;42.642;23.310;2023-05-22T04:32:09;93768.88;;;13.71;100.00
28911;BME280;16028;42.642;23.310;2023-05-22T04:34:36;93773.16;;;13.72;100.00
28911;BME280;16028;42.642;23.310;2023-05-22T04:37:03;93771.50;;;13.71;100.00
28911;BME280;16028;42.642;23.310;2023-05-22T04:39:31;93770.97;;;13.75;100.00
28911;BME280;16028;42.642;23.310;2023-05-22T04:41:58;93777.47;;;13.88;100.00
28911;BME280;16028;42.642;23.310;2023-05-22T04:44:30;93784.47;;;13.87;100.00
28911;BME280;16028;42.642;23.310;2023-05-22T04:47:04;93782.00;;;13.94;100.00
28911;BME280;16028;42.642;23.310;2023-05-22T04:49:42;93779.84;;;13.97;100.00
28911;BME280;16028;42.642;23.310;2023-05-22T04:52:10;93778.50;;;14.01;99.55
28911;BME280;16028;42.642;23.310;2023-05-22T04:54:38;93778.97;;;14.05;100.00
28911;BME280;16028;42.642;23.310;2023-05-22T04:57:05;93776.47;;;14.11;100.00
28911;BME280;16028;42.642;23.310;2023-05-22T04:59:34;93774.31;;;14.15;99.62
28911;BME280;16028;42.642;23.310;2023-05-22T05:02:02;93781.09;;;14.24;97.86
28911;BME280;16028;42.642;23.310;2023-05-22T05:04:29;93779.53;;;14.15;98.49
28911;BME280;16028;42.642;23.310;2023-05-22T05:07:00;93779.06;;;14.42;100.00
28911;BME280;16028;42.642;23.310;2023-05-22T05:09:28;93779.59;;;14.52;99.25
28911;BME280;16028;42.642;23.310;2023-05-22T05:11:56;93780.72;;;14.58;98.62
28911;BME280;16028;42.642;23.310;2023-05-22T05:14:25;93781.34;;;14.60;98.27
28911;BME280;16028;42.642;23.310;2023-05-22T05:16:52;93784.28;;;14.79;100.00
28911;BME280;16028;42.642;23.310;2023-05-22T05:19:19;93777.84;;;14.97;98.09
28911;BME280;16028;42.642;23.310;2023-05-22T05:21:46;93777.06;;;15.11;95.18
28911;BME280;16028;42.642;23.310;2023-05-22T05:24:14;93777.16;;;15.47;97.02
28911;BME280;16028;42.642;23.310;2023-05-22T05:26:41;93783.50;;;15.52;96.07
28911;BME280;16028;42.642;23.310;2023-05-22T05:29:09;93776.22;;;15.69;95.72
28911;BME280;16028;42.642;23.310;2023-05-22T05:31:37;93771.09;;;16.18;92.07
28911;BME280;16028;42.642;23.310;2023-05-22T05:34:03;93780.16;;;16.79;84.81
28911;BME280;16028;42.642;23.310;2023-05-22T05:36:30;93778.22;;;16.87;87.14
28911;BME280;16028;42.642;23.310;2023-05-22T05:38:57;93787.28;;;17.13;83.53
28911;BME280;16028;42.642;23.310;2023-05-22T05:41:24;93782.25;;;17.18;80.85
28911;BME280;16028;42.642;23.310;2023-05-22T05:43:51;93788.13;;;17.20;81.81
28911;BME280;16028;42.642;23.310;2023-05-22T05:46:19;93790.75;;;17.20;80.93
28911;BME280;16028;42.642;23.310;2023-05-22T05:48:46;93792.28;;;17.35;78.53
28911;BME280;16028;42.642;23.310;2023-05-22T05:51:13;93785.88;;;17.51;79.39
28911;BME280;16028;42.642;23.310;2023-05-22T05:53:40;93790.91;;;17.87;75.85
28911;BME280;16028;42.642;23.310;2023-05-22T05:56:07;93787.25;;;17.81;77.95
28911;BME280;16028;42.642;23.310;2023-05-22T05:58:34;93791.00;;;17.59;77.73
28911;BME280;16028;42.642;23.310;2023-05-22T06:01:00;93792.50;;;17.81;73.75
28911;BME280;16028;42.642;23.310;2023-05-22T06:03:28;93790.06;;;17.73;73.38
28911;BME280;16028;42.642;23.310;2023-05-22T06:05:56;93790.00;;;17.60;75.88
28911;BME280;16028;42.642;23.310;2023-05-22T06:08:23;93792.69;;;17.73;74.94
28911;BME280;16028;42.642;23.310;2023-05-22T06:10:50;93795.16;;;17.88;74.40
28911;BME280;16028;42.642;23.310;2023-05-22T06:13:17;93795.22;;;18.01;75.13
28911;BME280;16028;42.642;23.310;2023-05-22T06:15:43;93795.31;;;18.34;69.71
28911;BME280;16028;42.642;23.310;2023-05-22T06:18:10;93788.59;;;18.38;72.52
28911;BME280;16028;42.642;23.310;2023-05-22T06:20:39;93784.22;;;18.65;64.04
28911;BME280;16028;42.642;23.310;2023-05-22T06:23:06;93794.34;;;18.55;64.30
28911;BME280;16028;42.642;23.310;2023-05-22T06:25:32;93793.53;;;18.54;67.04
28911;BME280;16028;42.642;23.310;2023-05-22T06:27:59;93797.63;;;18.63;59.51
28911;BME280;16028;42.642;23.310;2023-05-22T06:30:26;93798.81;;;18.67;58.08
28911;BME280;16028;42.642;23.310;2023-05-22T06:32:53;93791.66;;;18.48;62.19
28911;BME280;16028;42.642;23.310;2023-05-22T06:35:19;93797.34;;;18.45;61.50
28911;BME280;16028;42.642;23.310;2023-05-22T06:37:47;93799.78;;;18.40;58.91
28911;BME280;16028;42.642;23.310;2023-05-22T06:40:14;93788.19;;;18.21;63.12
28911;BME280;16028;42.642;23.310;2023-05-22T06:42:42;93794.84;;;18.11;63.99
28911;BME280;16028;42.642;23.310;2023-05-22T06:45:09;93793.84;;;18.12;62.70
28911;BME280;16028;42.642;23.310;2023-05-22T06:47:36;93788.38;;;18.26;61.58
28911;BME280;16028;42.642;23.310;2023-05-22T06:50:04;93789.38;;;18.19;61.57
28911;BME280;16028;42.642;23.310;2023-05-22T06:52:31;93790.38;;;18.11;60.84
28911;BME280;16028;42.642;23.310;2023-05-22T06:54:59;93791.84;;;18.33;58.00
28911;BME280;16028;42.642;23.310;2023-05-22T06:57:30;93787.25;;;18.55;56.71
28911;BME280;16028;42.642;23.310;2023-05-22T06:59:57;93788.91;;;18.69;56.19
28911;BME280;16028;42.642;23.310;2023-05-22T07:02:24;93798.41;;;18.96;56.53
28911;BME280;16028;42.642;23.310;2023-05-22T07:04:51;93794.34;;;19.20;57.25
28911;BME280;16028;42.642;23.310;2023-05-22T07:07:18;93785.38;;;19.34;58.56
28911;BME280;16028;42.642;23.310;2023-05-22T07:09:45;93793.09;;;19.56;53.98
28911;BME280;16028;42.642;23.310;2023-05-22T07:12:13;93795.13;;;19.53;53.83
28911;BME280;16028;42.642;23.310;2023-05-22T07:14:40;93782.56;;;19.36;55.01
28911;BME280;16028;42.642;23.310;2023-05-22T07:17:06;93786.44;;;19.27;56.73
28911;BME280;16028;42.642;23.310;2023-05-22T07:19:33;93785.38;;;19.34;56.27
28911;BME280;16028;42.642;23.310;2023-05-22T07:22:00;93790.25;;;19.37;56.23
28911;BME280;16028;42.642;23.310;2023-05-22T07:24:27;93785.63;;;19.26;55.17
28911;BME280;16028;42.642;23.310;2023-05-22T07:26:54;93783.38;;;19.36;57.62
28911;BME280;16028;42.642;23.310;2023-05-22T07:29:22;93786.81;;;19.43;57.02
28911;BME280;16028;42.642;23.310;2023-05-22T07:31:49;93788.03;;;19.47;59.43
28911;BME280;16028;42.642;23.310;2023-05-22T07:34:16;93783.59;;;19.41;57.99
28911;BME280;16028;42.642;23.310;2023-05-22T07:36:43;93784.13;;;19.57;53.34
28911;BME280;16028;42.642;23.310;2023-05-22T07:39:09;93782.09;;;19.72;53.66
28911;BME280;16028;42.642;23.310;2023-05-22T07:41:36;93782.69;;;19.74;54.80
28911;BME280;16028;42.642;23.310;2023-05-22T07:44:03;93783.28;;;19.69;55.37
28911;BME280;16028;42.642;23.310;2023-05-22T07:46:31;93784.94;;;19.64;56.46
28911;BME280;16028;42.642;23.310;2023-05-22T07:48:59;93783.13;;;19.58;55.78
28911;BME280;16028;42.642;23.310;2023-05-22T07:51:26;93778.00;;;19.69;55.70
28911;BME280;16028;42.642;23.310;2023-05-22T07:53:53;93787.38;;;19.72;56.79
28911;BME280;16028;42.642;23.310;2023-05-22T07:56:19;93776.44;;;19.62;57.19
28911;BME280;16028;42.642;23.310;2023-05-22T07:58:46;93776.06;;;19.51;56.49
28911;BME280;16028;42.642;23.310;2023-05-22T08:01:13;93782.56;;;19.36;58.84
28911;BME280;16028;42.642;23.310;2023-05-22T08:03:42;93773.66;;;19.30;58.61
28911;BME280;16028;42.642;23.310;2023-05-22T08:06:09;93783.41;;;19.17;59.66
28911;BME280;16028;42.642;23.310;2023-05-22T08:08:35;93786.03;;;19.10;61.07
28911;BME280;16028;42.642;23.310;2023-05-22T08:11:02;93793.53;;;19.07;61.96
28911;BME280;16028;42.642;23.310;2023-05-22T08:13:29;93783.59;;;19.09;61.95
28911;BME280;16028;42.642;23.310;2023-05-22T08:15:56;93787.03;;;19.16;59.21
28911;BME280;16028;42.642;23.310;2023-05-22T08:18:23;93791.06;;;19.31;57.98
28911;BME280;16028;42.642;23.310;2023-05-22T08:20:53;93783.75;;;19.46;56.97
28911;BME280;16028;42.642;23.310;2023-05-22T08:23:20;93783.38;;;19.49;54.06
28911;BME280;16028;42.642;23.310;2023-05-22T08:25:47;93781.94;;;19.47;55.16
28911;BME280;16028;42.642;23.310;2023-05-22T08:28:14;93781.34;;;19.45;56.35
28911;BME280;16028;42.642;23.310;2023-05-22T08:30:41;93781.75;;;19.42;56.17
28911;BME280;16028;42.642;23.310;2023-05-22T08:33:07;93782.97;;;19.39;59.62
28911;BME280;16028;42.642;23.310;2023-05-22T08:35:34;93775.66;;;19.41;57.33
28911;BME280;16028;42.642;23.310;2023-05-22T08:38:02;93788.25;;;19.46;57.04
28911;BME280;16028;42.642;23.310;2023-05-22T08:40:33;93785.19;;;19.36;54.03
28911;BME280;16028;42.642;23.310;2023-05-22T08:43:03;93782.16;;;19.52;51.82
28911;BME280;16028;42.642;23.310;2023-05-22T08:45:30;93779.50;;;19.59;54.26
28911;BME280;16028;42.642;23.310;2023-05-22T08:47:59;93776.88;;;19.52;55.33
28911;BME280;16028;42.642;23.310;2023-05-22T08:50:29;93782.16;;;19.39;56.61
28911;BME280;16028;42.642;23.310;2023-05-22T08:52:56;93775.66;;;19.41;54.48
28911;BME280;16028;42.642;23.310;2023-05-22T08:55:27;93774.66;;;19.36;56.16
28911;BME280;16028;42.642;23.310;2023-05-22T08:57:55;93774.03;;;19.47;57.77
28911;BME280;16028;42.642;23.310;2023-05-22T09:00:22;93777.78;;;19.77;54.33
28911;BME280;16028;42.642;23.310;2023-05-22T09:02:49;93766.00;;;19.80;56.46
28911;BME280;16028;42.642;23.310;2023-05-22T09:05:17;93767.56;;;19.94;53.53
28911;BME280;16028;42.642;23.310;2023-05-22T09:07:43;93761.66;;;19.98;49.24
28911;BME280;16028;42.642;23.310;2023-05-22T09:10:10;93763.19;;;20.19;49.32
28911;BME280;16028;42.642;23.310;2023-05-22T09:12:58;93768.84;;;20.29;48.06
28911;BME280;16028;42.642;23.310;2023-05-22T09:15:28;93763.50;;;20.36;48.67
28911;BME280;16028;42.642;23.310;2023-05-22T09:17:58;93760.03;;;20.42;47.15
28911;BME280;16028;42.642;23.310;2023-05-22T09:20:25;93753.50;;;20.44;46.50
28911;BME280;16028;42.642;23.310;2023-05-22T09:22:52;93758.56;;;20.46;48.15
28911;BME280;16028;42.642;23.310;2023-05-22T09:25:20;93750.81;;;20.51;47.49
28911;BME280;16028;42.642;23.310;2023-05-22T09:27:48;93758.84;;;20.63;49.19
28911;BME280;16028;42.642;23.310;2023-05-22T09:30:15;93755.97;;;20.71;49.36
28911;BME280;16028;42.642;23.310;2023-05-22T09:32:43;93757.06;;;20.81;47.82
28911;BME280;16028;42.642;23.310;2023-05-22T09:35:11;93755.78;;;20.90;46.23
28911;BME280;16028;42.642;23.310;2023-05-22T09:37:39;93762.84;;;20.96;46.38
28911;BME280;16028;42.642;23.310;2023-05-22T09:40:07;93751.69;;;20.94;44.98
28911;BME280;16028;42.642;23.310;2023-05-22T09:42:35;93758.41;;;20.90;45.79
28911;BME280;16028;42.642;23.310;2023-05-22T09:45:05;93761.34;;;20.82;45.31
28911;BME280;16028;42.642;23.310;2023-05-22T09:47:34;93756.09;;;20.76;46.09
28911;BME280;16028;42.642;23.310;2023-05-22T09:50:02;93756.53;;;20.73;46.65
28911;BME280;16028;42.642;23.310;2023-05-22T09:52:33;93761.28;;;20.64;45.63
28911;BME280;16028;42.642;23.310;2023-05-22T09:55:02;93760.28;;;20.58;45.08
28911;BME280;16028;42.642;23.310;2023-05-22T09:57:31;93763.97;;;20.57;44.68
28911;BME280;16028;42.642;23.310;2023-05-22T09:59:58;93760.78;;;20.49;44.53
28911;BME280;16028;42.642;23.310;2023-05-22T10:02:28;93761.25;;;20.39;46.75
28911;BME280;16028;42.642;23.310;2023-05-22T10:04:55;93769.59;;;20.36;45.97
28911;BME280;16028;42.642;23.310;2023-05-22T10:07:31;93762.31;;;20.32;46.41
28911;BME280;16028;42.642;23.310;2023-05-22T10:10:05;93761.72;;;20.23;47.03
28911;BME280;16028;42.642;23.310;2023-05-22T10:12:39;93767.22;;;20.22;46.94
28911;BME280;16028;42.642;23.310;2023-05-22T10:15:08;93771.69;;;20.21;47.05
28911;BME280;16028;42.642;23.310;2023-05-22T10:17:37;93766.63;;;20.20;46.96
28911;BME280;16028;42.642;23.310;2023-05-22T10:20:06;93765.59;;;20.27;47.23
28911;BME280;16028;42.642;23.310;2023-05-22T10:22:36;93766.38;;;20.34;47.22
28911;BME280;16028;42.642;23.310;2023-05-22T10:25:04;93773.97;;;20.49;46.83
28911;BME280;16028;42.642;23.310;2023-05-22T10:27:31;93770.72;;;20.53;49.62
28911;BME280;16028;42.642;23.310;2023-05-22T10:30:03;93768.09;;;20.78;49.56
28911;BME280;16028;42.642;23.310;2023-05-22T10:32:34;93767.31;;;20.71;51.05
28911;BME280;16028;42.642;23.310;2023-05-22T10:35:12;93774.44;;;20.39;52.79
28911;BME280;16028;42.642;23.310;2023-05-22T10:37:47;93779.06;;;20.13;52.73
28911;BME280;16028;42.642;23.310;2023-05-22T10:40:20;93772.69;;;19.82;54.96
28911;BME280;16028;42.642;23.310;2023-05-22T10:42:56;93784.97;;;19.50;67.52
28911;BME280;16028;42.642;23.310;2023-05-22T10:45:24;93790.16;;;18.13;74.34
28911;BME280;16028;42.642;23.310;2023-05-22T10:48:01;93792.31;;;17.42;78.51
28911;BME280;16028;42.642;23.310;2023-05-22T10:50:29;93798.88;;;17.25;82.96
28911;BME280;16028;42.642;23.310;2023-05-22T10:53:24;93797.97;;;17.11;80.96
28911;BME280;16028;42.642;23.310;2023-05-22T10:55:52;93793.47;;;17.05;84.39
28911;BME280;16028;42.642;23.310;2023-05-22T10:58:25;93790.84;;;17.05;84.34
28911;BME280;16028;42.642;23.310;2023-05-22T11:01:07;93790.91;;;17.12;81.86
28911;BME280;16028;42.642;23.310;2023-05-22T11:03:49;93785.97;;;17.36;79.04
28911;BME280;16028;42.642;23.310;2023-05-22T11:06:33;93783.25;;;17.51;74.34
28911;BME280;16028;42.642;23.310;2023-05-22T11:09:16;93784.72;;;17.60;75.80
28911;BME280;16028;42.642;23.310;2023-05-22T11:11:43;93776.91;;;17.73;72.37
28911;BME280;16028;42.642;23.310;2023-05-22T11:14:10;93782.19;;;17.80;71.59
28911;BME280;16028;42.642;23.310;2023-05-22T11:16:38;93776.16;;;17.92;70.06
28911;BME280;16028;42.642;23.310;2023-05-22T11:19:05;93766.84;;;18.03;68.75
28911;BME280;16028;42.642;23.310;2023-05-22T11:21:40;93771.97;;;18.11;67.37
28911;BME280;16028;42.642;23.310;2023-05-22T11:24:07;93770.31;;;18.10;68.00
28911;BME280;16028;42.642;23.310;2023-05-22T11:26:35;93769.13;;;18.19;70.99
28911;BME280;16028;42.642;23.310;2023-05-22T11:29:05;93772.41;;;18.47;70.54
28911;BME280;16028;42.642;23.310;2023-05-22T11:31:33;93787.25;;;18.55;70.74
28911;BME280;16028;42.642;23.310;2023-05-22T11:34:01;93786.44;;;18.55;67.18
28911;BME280;16028;42.642;23.310;2023-05-22T11:36:27;93803.06;;;18.55;67.26
28911;BME280;16028;42.642;23.310;2023-05-22T11:38:58;93809.94;;;18.49;67.19
28911;BME280;16028;42.642;23.310;2023-05-22T11:41:29;93818.91;;;18.01;71.38
28911;BME280;16028;42.642;23.310;2023-05-22T11:43:56;93819.13;;;17.59;74.50
28911;BME280;16028;42.642;23.310;2023-05-22T11:46:22;93827.25;;;17.36;74.90
28911;BME280;16028;42.642;23.310;2023-05-22T11:48:51;93823.97;;;17.27;77.74
28911;BME280;16028;42.642;23.310;2023-05-22T11:51:18;93834.25;;;17.22;79.82
28911;BME280;16028;42.642;23.310;2023-05-22T11:53:45;93838.44;;;17.17;79.52
28911;BME280;16028;42.642;23.310;2023-05-22T11:56:14;93838.88;;;17.20;77.70
28911;BME280;16028;42.642;23.310;2023-05-22T11:58:40;93832.81;;;17.20;74.97
28911;BME280;16028;42.642;23.310;2023-05-22T12:01:07;93832.94;;;17.12;76.20
28911;BME280;16028;42.642;23.310;2023-05-22T12:03:34;93825.06;;;17.12;76.92
28911;BME280;16028;42.642;23.310;2023-05-22T12:06:01;93818.06;;;16.98;76.52
28911;BME280;16028;42.642;23.310;2023-05-22T12:08:28;93820.72;;;16.98;77.54
28911;BME280;16028;42.642;23.310;2023-05-22T12:10:55;93813.84;;;16.97;77.32
28911;BME280;16028;42.642;23.310;2023-05-22T12:13:25;93819.28;;;16.95;77.86
28911;BME280;16028;42.642;23.310;2023-05-22T12:15:53;93812.81;;;16.91;78.09
28911;BME280;16028;42.642;23.310;2023-05-22T12:18:20;93815.78;;;16.88;76.66
28911;BME280;16028;42.642;23.310;2023-05-22T12:20:50;93813.31;;;16.80;77.66
28911;BME280;16028;42.642;23.310;2023-05-22T12:23:22;93808.00;;;16.73;80.85
28911;BME280;16028;42.642;23.310;2023-05-22T12:25:57;93811.16;;;16.62;79.74
28911;BME280;16028;42.642;23.310;2023-05-22T12:28:25;93802.63;;;16.60;81.70
28911;BME280;16028;42.642;23.310;2023-05-22T12:30:52;93804.00;;;16.56;81.46
28911;BME280;16028;42.642;23.310;2023-05-22T12:33:24;93802.75;;;16.52;82.16
28911;BME280;16028;42.642;23.310;2023-05-22T12:35:51;93800.50;;;16.49;84.33
28911;BME280;16028;42.642;23.310;2023-05-22T12:38:19;93788.16;;;16.50;88.05
28911;BME280;16028;42.642;23.310;2023-05-22T12:40:46;93784.81;;;16.56;91.43
28911;BME280;16028;42.642;23.310;2023-05-22T12:43:13;93787.13;;;16.65;91.94
28911;BME280;16028;42.642;23.310;2023-05-22T12:45:41;93788.63;;;16.74;89.02
28911;BME280;16028;42.642;23.310;2023-05-22T12:48:08;93791.09;;;16.82;89.00
28911;BME280;16028;42.642;23.310;2023-05-22T12:50:36;93783.91;;;16.98;87.77
28911;BME280;16028;42.642;23.310;2023-05-22T12:53:06;93780.56;;;17.04;88.55
28911;BME280;16028;42.642;23.310;2023-05-22T12:55:32;93783.00;;;17.12;90.70